sensor_id;sensor_type;location;lat;lon;timestamp;P1;durP1;ratioP1;P2;durP2;ratioP2
36443;SDS011;24692;45.642;13.806;2022-10-31T00:01:35;4.10;;;1.90;;
36443;SDS011;24692;45.642;13.806;2022-10-31T00:04:02;6.03;;;1.80;;
36443;SDS011;24692;45.642;13.806;2022-10-31T00:06:28;7.40;;;2.00;;
36443;SDS011;24692;45.642;13.806;2022-10-31T00:08:55;7.33;;;2.13;;
36443;SDS011;24692;45.642;13.806;2022-10-31T00:11:23;4.90;;;2.40;;
36443;SDS011;24692;45.642;13.806;2022-10-31T00:13:49;7.00;;;2.00;;
36443;SDS011;24692;45.642;13.806;2022-10-31T00:16:18;6.87;;;2.03;;
36443;SDS011;24692;45.642;13.806;2022-10-31T00:18:50;6.70;;;2.57;;
36443;SDS011;24692;45.642;13.806;2022-10-31T00:21:20;6.00;;;1.87;;
36443;SDS011;24692;45.642;13.806;2022-10-31T00:23:46;8.43;;;2.10;;
36443;SDS011;24692;45.642;13.806;2022-10-31T00:26:13;5.60;;;2.27;;
36443;SDS011;24692;45.642;13.806;2022-10-31T00:28:39;8.17;;;2.20;;
36443;SDS011;24692;45.642;13.806;2022-10-31T00:31:05;7.40;;;2.10;;
36443;SDS011;24692;45.642;13.806;2022-10-31T00:33:33;6.23;;;2.00;;
36443;SDS011;24692;45.642;13.806;2022-10-31T00:36:00;7.43;;;2.27;;
36443;SDS011;24692;45.642;13.806;2022-10-31T00:38:25;5.67;;;2.10;;
36443;SDS011;24692;45.642;13.806;2022-10-31T00:40:51;3.60;;;1.80;;
36443;SDS011;24692;45.642;13.806;2022-10-31T00:43:17;7.30;;;1.90;;
36443;SDS011;24692;45.642;13.806;2022-10-31T00:45:42;6.87;;;2.13;;
36443;SDS011;24692;45.642;13.806;2022-10-31T00:48:08;5.83;;;2.20;;
36443;SDS011;24692;45.642;13.806;2022-10-31T00:50:35;7.83;;;1.90;;
36443;SDS011;24692;45.642;13.806;2022-10-31T00:53:01;5.13;;;1.83;;
36443;SDS011;24692;45.642;13.806;2022-10-31T00:55:26;7.20;;;2.47;;
36443;SDS011;24692;45.642;13.806;2022-10-31T00:57:52;5.87;;;2.03;;
36443;SDS011;24692;45.642;13.806;2022-10-31T01:00:18;5.00;;;1.90;;
36443;SDS011;24692;45.642;13.806;2022-10-31T01:02:43;4.77;;;1.90;;
36443;SDS011;24692;45.642;13.806;2022-10-31T01:05:09;9.93;;;2.17;;
36443;SDS011;24692;45.642;13.806;2022-10-31T01:07:35;9.20;;;2.30;;
36443;SDS011;24692;45.642;13.806;2022-10-31T01:10:02;5.37;;;2.13;;
36443;SDS011;24692;45.642;13.806;2022-10-31T01:12:28;8.00;;;2.47;;
36443;SDS011;24692;45.642;13.806;2022-10-31T01:14:54;9.47;;;2.00;;
36443;SDS011;24692;45.642;13.806;2022-10-31T01:17:20;7.83;;;2.23;;
36443;SDS011;24692;45.642;13.806;2022-10-31T01:19:45;5.53;;;2.20;;
36443;SDS011;24692;45.642;13.806;2022-10-31T01:22:11;7.70;;;2.17;;
36443;SDS011;24692;45.642;13.806;2022-10-31T01:24:36;3.30;;;1.90;;
36443;SDS011;24692;45.642;13.806;2022-10-31T01:27:02;4.87;;;2.20;;
36443;SDS011;24692;45.642;13.806;2022-10-31T01:29:28;6.17;;;2.13;;
36443;SDS011;24692;45.642;13.806;2022-10-31T01:31:54;6.57;;;2.27;;
36443;SDS011;24692;45.642;13.806;2022-10-31T01:34:19;9.37;;;2.10;;
36443;SDS011;24692;45.642;13.806;2022-10-31T01:36:45;5.13;;;2.07;;
36443;SDS011;24692;45.642;13.806;2022-10-31T01:39:16;6.37;;;2.03;;
36443;SDS011;24692;45.642;13.806;2022-10-31T01:41:43;9.10;;;2.20;;
36443;SDS011;24692;45.642;13.806;2022-10-31T01:49:13;5.90;;;2.10;;
36443;SDS011;24692;45.642;13.806;2022-10-31T01:51:56;6.70;;;2.17;;
36443;SDS011;24692;45.642;13.806;2022-10-31T01:54:28;8.93;;;2.53;;
36443;SDS011;24692;45.642;13.806;2022-10-31T01:57:02;9.67;;;2.50;;
36443;SDS011;24692;45.642;13.806;2022-10-31T01:59:30;5.83;;;1.80;;
36443;SDS011;24692;45.642;13.806;2022-10-31T02:01:58;7.17;;;1.97;;
36443;SDS011;24692;45.642;13.806;2022-10-31T02:04:24;6.23;;;2.00;;
36443;SDS011;24692;45.642;13.806;2022-10-31T02:06:52;6.33;;;2.13;;
36443;SDS011;24692;45.642;13.806;2022-10-31T02:09:22;8.23;;;2.17;;
36443;SDS011;24692;45.642;13.806;2022-10-31T02:11:52;6.17;;;2.07;;
36443;SDS011;24692;45.642;13.806;2022-10-31T02:14:22;6.63;;;2.23;;
36443;SDS011;24692;45.642;13.806;2022-10-31T02:16:49;8.57;;;2.30;;
36443;SDS011;24692;45.642;13.806;2022-10-31T02:19:18;5.70;;;1.97;;
36443;SDS011;24692;45.642;13.806;2022-10-31T02:21:54;9.47;;;2.17;;
36443;SDS011;24692;45.642;13.806;2022-10-31T02:27:11;5.10;;;2.10;;
36443;SDS011;24692;45.642;13.806;2022-10-31T02:32:43;5.73;;;1.97;;
36443;SDS011;24692;45.642;13.806;2022-10-31T02:35:36;9.43;;;2.00;;
36443;SDS011;24692;45.642;13.806;2022-10-31T02:38:13;7.13;;;2.03;;
36443;SDS011;24692;45.642;13.806;2022-10-31T02:46:04;7.03;;;2.23;;
36443;SDS011;24692;45.642;13.806;2022-10-31T02:48:33;4.60;;;1.90;;
36443;SDS011;24692;45.642;13.806;2022-10-31T02:51:02;8.43;;;2.10;;
36443;SDS011;24692;45.642;13.806;2022-10-31T02:53:32;8.07;;;2.10;;
36443;SDS011;24692;45.642;13.806;2022-10-31T02:56:01;6.73;;;2.20;;
36443;SDS011;24692;45.642;13.806;2022-10-31T02:58:31;11.70;;;2.20;;
36443;SDS011;24692;45.642;13.806;2022-10-31T03:06:35;6.67;;;2.00;;
36443;SDS011;24692;45.642;13.806;2022-10-31T03:09:25;8.43;;;2.10;;
36443;SDS011;24692;45.642;13.806;2022-10-31T03:12:11;4.17;;;1.80;;
36443;SDS011;24692;45.642;13.806;2022-10-31T03:15:34;7.40;;;2.03;;
36443;SDS011;24692;45.642;13.806;2022-10-31T03:18:07;8.10;;;2.10;;
36443;SDS011;24692;45.642;13.806;2022-10-31T03:23:31;6.60;;;2.53;;
36443;SDS011;24692;45.642;13.806;2022-10-31T03:26:00;7.63;;;2.27;;
36443;SDS011;24692;45.642;13.806;2022-10-31T03:28:33;3.60;;;2.00;;
36443;SDS011;24692;45.642;13.806;2022-10-31T03:31:02;6.70;;;2.00;;
36443;SDS011;24692;45.642;13.806;2022-10-31T03:33:31;6.00;;;2.30;;
36443;SDS011;24692;45.642;13.806;2022-10-31T03:36:00;8.30;;;2.07;;
36443;SDS011;24692;45.642;13.806;2022-10-31T03:38:29;4.77;;;2.00;;
36443;SDS011;24692;45.642;13.806;2022-10-31T03:40:57;6.63;;;2.30;;
36443;SDS011;24692;45.642;13.806;2022-10-31T03:43:26;9.20;;;2.20;;
36443;SDS011;24692;45.642;13.806;2022-10-31T03:45:57;3.53;;;1.90;;
36443;SDS011;24692;45.642;13.806;2022-10-31T03:48:23;10.57;;;2.03;;
36443;SDS011;24692;45.642;13.806;2022-10-31T03:53:50;6.27;;;2.23;;
36443;SDS011;24692;45.642;13.806;2022-10-31T03:59:10;5.17;;;1.93;;
36443;SDS011;24692;45.642;13.806;2022-10-31T04:01:44;7.40;;;2.20;;
36443;SDS011;24692;45.642;13.806;2022-10-31T04:04:12;9.20;;;2.10;;
36443;SDS011;24692;45.642;13.806;2022-10-31T04:06:39;7.90;;;2.20;;
36443;SDS011;24692;45.642;13.806;2022-10-31T04:09:08;5.87;;;2.20;;
36443;SDS011;24692;45.642;13.806;2022-10-31T04:11:40;8.63;;;2.40;;
36443;SDS011;24692;45.642;13.806;2022-10-31T04:14:11;8.73;;;2.20;;
36443;SDS011;24692;45.642;13.806;2022-10-31T04:16:38;7.83;;;2.40;;
36443;SDS011;24692;45.642;13.806;2022-10-31T04:19:06;7.87;;;2.33;;
36443;SDS011;24692;45.642;13.806;2022-10-31T04:21:32;4.83;;;2.00;;
36443;SDS011;24692;45.642;13.806;2022-10-31T04:23:58;4.87;;;1.90;;
36443;SDS011;24692;45.642;13.806;2022-10-31T04:26:24;8.33;;;2.10;;
36443;SDS011;24692;45.642;13.806;2022-10-31T04:28:49;5.77;;;2.23;;
36443;SDS011;24692;45.642;13.806;2022-10-31T04:31:15;5.63;;;1.93;;
36443;SDS011;24692;45.642;13.806;2022-10-31T04:33:41;5.57;;;2.17;;
36443;SDS011;24692;45.642;13.806;2022-10-31T04:36:06;7.77;;;2.50;;
36443;SDS011;24692;45.642;13.806;2022-10-31T04:38:32;7.43;;;2.10;;
36443;SDS011;24692;45.642;13.806;2022-10-31T04:40:58;8.07;;;2.40;;
36443;SDS011;24692;45.642;13.806;2022-10-31T04:43:24;5.93;;;2.00;;
36443;SDS011;24692;45.642;13.806;2022-10-31T04:45:49;8.50;;;2.20;;
36443;SDS011;24692;45.642;13.806;2022-10-31T04:48:15;10.80;;;2.50;;
36443;SDS011;24692;45.642;13.806;2022-10-31T04:50:41;9.53;;;2.30;;
36443;SDS011;24692;45.642;13.806;2022-10-31T04:53:07;11.77;;;2.60;;
36443;SDS011;24692;45.642;13.806;2022-10-31T04:55:33;10.03;;;2.23;;
36443;SDS011;24692;45.642;13.806;2022-10-31T04:58:00;5.33;;;1.97;;
36443;SDS011;24692;45.642;13.806;2022-10-31T05:00:26;8.73;;;2.87;;
36443;SDS011;24692;45.642;13.806;2022-10-31T05:02:52;6.87;;;2.13;;
36443;SDS011;24692;45.642;13.806;2022-10-31T05:05:26;9.47;;;2.20;;
36443;SDS011;24692;45.642;13.806;2022-10-31T05:07:56;11.07;;;2.23;;
36443;SDS011;24692;45.642;13.806;2022-10-31T05:10:25;10.70;;;2.47;;
36443;SDS011;24692;45.642;13.806;2022-10-31T05:12:53;10.17;;;2.20;;
36443;SDS011;24692;45.642;13.806;2022-10-31T05:15:24;5.93;;;1.97;;
36443;SDS011;24692;45.642;13.806;2022-10-31T05:17:51;5.30;;;2.23;;
36443;SDS011;24692;45.642;13.806;2022-10-31T05:20:18;6.77;;;2.30;;
36443;SDS011;24692;45.642;13.806;2022-10-31T05:22:46;5.20;;;2.20;;
36443;SDS011;24692;45.642;13.806;2022-10-31T05:25:16;7.87;;;2.50;;
36443;SDS011;24692;45.642;13.806;2022-10-31T05:27:44;6.67;;;2.20;;
36443;SDS011;24692;45.642;13.806;2022-10-31T05:30:12;6.77;;;2.37;;
36443;SDS011;24692;45.642;13.806;2022-10-31T05:32:43;5.50;;;2.10;;
36443;SDS011;24692;45.642;13.806;2022-10-31T05:35:10;14.67;;;2.60;;
36443;SDS011;24692;45.642;13.806;2022-10-31T05:37:38;10.73;;;2.27;;
36443;SDS011;24692;45.642;13.806;2022-10-31T05:40:04;4.73;;;2.03;;
36443;SDS011;24692;45.642;13.806;2022-10-31T05:42:32;7.23;;;1.90;;
36443;SDS011;24692;45.642;13.806;2022-10-31T05:44:58;4.43;;;1.90;;
36443;SDS011;24692;45.642;13.806;2022-10-31T05:47:24;8.90;;;2.50;;
36443;SDS011;24692;45.642;13.806;2022-10-31T05:49:50;9.83;;;2.00;;
36443;SDS011;24692;45.642;13.806;2022-10-31T05:52:16;5.67;;;2.20;;
36443;SDS011;24692;45.642;13.806;2022-10-31T05:54:42;7.10;;;2.33;;
36443;SDS011;24692;45.642;13.806;2022-10-31T05:57:07;8.57;;;2.43;;
36443;SDS011;24692;45.642;13.806;2022-10-31T05:59:33;13.50;;;2.40;;
36443;SDS011;24692;45.642;13.806;2022-10-31T06:01:59;9.07;;;2.37;;
36443;SDS011;24692;45.642;13.806;2022-10-31T06:04:24;6.17;;;2.00;;
36443;SDS011;24692;45.642;13.806;2022-10-31T06:06:50;8.57;;;2.30;;
36443;SDS011;24692;45.642;13.806;2022-10-31T06:09:16;6.07;;;2.00;;
36443;SDS011;24692;45.642;13.806;2022-10-31T06:11:41;9.77;;;2.20;;
36443;SDS011;24692;45.642;13.806;2022-10-31T06:14:07;8.27;;;2.73;;
36443;SDS011;24692;45.642;13.806;2022-10-31T06:16:33;15.67;;;2.93;;
36443;SDS011;24692;45.642;13.806;2022-10-31T06:18:58;12.47;;;3.23;;
36443;SDS011;24692;45.642;13.806;2022-10-31T06:21:24;9.03;;;2.43;;
36443;SDS011;24692;45.642;13.806;2022-10-31T06:23:50;8.27;;;2.27;;
36443;SDS011;24692;45.642;13.806;2022-10-31T06:26:16;13.47;;;2.70;;
36443;SDS011;24692;45.642;13.806;2022-10-31T06:28:41;12.57;;;3.07;;
36443;SDS011;24692;45.642;13.806;2022-10-31T06:31:07;7.63;;;2.63;;
36443;SDS011;24692;45.642;13.806;2022-10-31T06:33:33;10.60;;;2.83;;
36443;SDS011;24692;45.642;13.806;2022-10-31T06:35:59;9.57;;;2.40;;
36443;SDS011;24692;45.642;13.806;2022-10-31T06:38:25;11.02;;;2.53;;
36443;SDS011;24692;45.642;13.806;2022-10-31T06:40:52;13.03;;;2.77;;
36443;SDS011;24692;45.642;13.806;2022-10-31T06:43:18;6.78;;;2.20;;
36443;SDS011;24692;45.642;13.806;2022-10-31T06:45:43;8.00;;;2.30;;
36443;SDS011;24692;45.642;13.806;2022-10-31T06:48:09;9.15;;;2.00;;
36443;SDS011;24692;45.642;13.806;2022-10-31T06:50:34;7.78;;;2.88;;
36443;SDS011;24692;45.642;13.806;2022-10-31T06:53:00;11.02;;;2.75;;
36443;SDS011;24692;45.642;13.806;2022-10-31T06:55:26;11.23;;;2.40;;
36443;SDS011;24692;45.642;13.806;2022-10-31T06:57:53;8.68;;;2.42;;
36443;SDS011;24692;45.642;13.806;2022-10-31T07:00:23;8.95;;;2.25;;
36443;SDS011;24692;45.642;13.806;2022-10-31T07:02:53;8.15;;;2.15;;
36443;SDS011;24692;45.642;13.806;2022-10-31T07:05:23;9.57;;;2.20;;
36443;SDS011;24692;45.642;13.806;2022-10-31T07:07:53;7.80;;;2.63;;
36443;SDS011;24692;45.642;13.806;2022-10-31T07:10:20;7.95;;;2.60;;
36443;SDS011;24692;45.642;13.806;2022-10-31T07:12:46;10.20;;;2.65;;
36443;SDS011;24692;45.642;13.806;2022-10-31T07:15:11;4.35;;;2.30;;
36443;SDS011;24692;45.642;13.806;2022-10-31T07:17:37;11.20;;;2.60;;
36443;SDS011;24692;45.642;13.806;2022-10-31T07:20:03;9.32;;;2.70;;
36443;SDS011;24692;45.642;13.806;2022-10-31T07:22:33;10.98;;;2.90;;
36443;SDS011;24692;45.642;13.806;2022-10-31T07:24:59;12.80;;;2.88;;
36443;SDS011;24692;45.642;13.806;2022-10-31T07:27:24;10.40;;;2.72;;
36443;SDS011;24692;45.642;13.806;2022-10-31T07:29:50;13.77;;;3.00;;
36443;SDS011;24692;45.642;13.806;2022-10-31T07:32:16;11.85;;;2.60;;
36443;SDS011;24692;45.642;13.806;2022-10-31T07:34:41;11.05;;;3.05;;
36443;SDS011;24692;45.642;13.806;2022-10-31T07:37:07;10.38;;;2.30;;
36443;SDS011;24692;45.642;13.806;2022-10-31T07:39:32;10.68;;;3.00;;
36443;SDS011;24692;45.642;13.806;2022-10-31T07:41:58;13.55;;;3.05;;
36443;SDS011;24692;45.642;13.806;2022-10-31T07:44:24;7.50;;;2.70;;
36443;SDS011;24692;45.642;13.806;2022-10-31T07:46:49;12.23;;;3.30;;
36443;SDS011;24692;45.642;13.806;2022-10-31T07:49:15;10.98;;;3.25;;
36443;SDS011;24692;45.642;13.806;2022-10-31T07:51:41;14.13;;;3.17;;
36443;SDS011;24692;45.642;13.806;2022-10-31T07:54:06;12.07;;;3.28;;
36443;SDS011;24692;45.642;13.806;2022-10-31T07:56:32;15.98;;;8.55;;
36443;SDS011;24692;45.642;13.806;2022-10-31T07:58:58;12.82;;;5.15;;
36443;SDS011;24692;45.642;13.806;2022-10-31T08:01:23;13.82;;;6.07;;
36443;SDS011;24692;45.642;13.806;2022-10-31T08:03:49;11.18;;;4.40;;
36443;SDS011;24692;45.642;13.806;2022-10-31T08:06:14;11.50;;;3.58;;
36443;SDS011;24692;45.642;13.806;2022-10-31T08:08:40;11.23;;;3.53;;
36443;SDS011;24692;45.642;13.806;2022-10-31T08:11:06;11.70;;;3.45;;
36443;SDS011;24692;45.642;13.806;2022-10-31T08:13:31;9.95;;;4.00;;
36443;SDS011;24692;45.642;13.806;2022-10-31T08:15:57;13.30;;;3.30;;
36443;SDS011;24692;45.642;13.806;2022-10-31T08:18:29;9.05;;;3.80;;
36443;SDS011;24692;45.642;13.806;2022-10-31T08:20:59;11.88;;;3.70;;
36443;SDS011;24692;45.642;13.806;2022-10-31T08:23:24;12.60;;;4.00;;
36443;SDS011;24692;45.642;13.806;2022-10-31T08:25:50;11.93;;;3.97;;
36443;SDS011;24692;45.642;13.806;2022-10-31T08:28:16;12.75;;;4.07;;
36443;SDS011;24692;45.642;13.806;2022-10-31T08:30:42;9.98;;;4.45;;
36443;SDS011;24692;45.642;13.806;2022-10-31T08:35:33;12.38;;;4.30;;
36443;SDS011;24692;45.642;13.806;2022-10-31T08:37:59;10.30;;;4.45;;
36443;SDS011;24692;45.642;13.806;2022-10-31T08:40:26;13.70;;;4.68;;
36443;SDS011;24692;45.642;13.806;2022-10-31T08:43:12;15.27;;;4.97;;
36443;SDS011;24692;45.642;13.806;2022-10-31T08:45:38;13.60;;;5.32;;
36443;SDS011;24692;45.642;13.806;2022-10-31T08:48:05;12.70;;;4.93;;
36443;SDS011;24692;45.642;13.806;2022-10-31T08:50:34;12.85;;;4.68;;
36443;SDS011;24692;45.642;13.806;2022-10-31T08:53:04;14.52;;;4.38;;
36443;SDS011;24692;45.642;13.806;2022-10-31T08:55:35;13.30;;;4.90;;
36443;SDS011;24692;45.642;13.806;2022-10-31T08:58:01;9.07;;;5.00;;
36443;SDS011;24692;45.642;13.806;2022-10-31T09:00:28;12.73;;;4.38;;
36443;SDS011;24692;45.642;13.806;2022-10-31T09:02:55;12.43;;;4.55;;
36443;SDS011;24692;45.642;13.806;2022-10-31T09:05:24;16.20;;;4.93;;
36443;SDS011;24692;45.642;13.806;2022-10-31T09:07:50;9.35;;;4.43;;
36443;SDS011;24692;45.642;13.806;2022-10-31T09:10:19;12.57;;;4.50;;
36443;SDS011;24692;45.642;13.806;2022-10-31T09:12:45;12.70;;;4.63;;
36443;SDS011;24692;45.642;13.806;2022-10-31T09:15:11;8.10;;;3.78;;
36443;SDS011;24692;45.642;13.806;2022-10-31T09:17:37;21.05;;;4.20;;
36443;SDS011;24692;45.642;13.806;2022-10-31T09:20:02;11.20;;;3.90;;
36443;SDS011;24692;45.642;13.806;2022-10-31T09:22:28;11.40;;;3.67;;
36443;SDS011;24692;45.642;13.806;2022-10-31T09:24:53;10.68;;;3.83;;
36443;SDS011;24692;45.642;13.806;2022-10-31T09:27:19;14.15;;;4.45;;
36443;SDS011;24692;45.642;13.806;2022-10-31T09:29:45;11.20;;;4.03;;
36443;SDS011;24692;45.642;13.806;2022-10-31T09:32:10;14.88;;;4.45;;
36443;SDS011;24692;45.642;13.806;2022-10-31T09:34:36;16.58;;;4.70;;
36443;SDS011;24692;45.642;13.806;2022-10-31T09:37:01;13.38;;;5.13;;
36443;SDS011;24692;45.642;13.806;2022-10-31T09:39:27;15.75;;;4.55;;
36443;SDS011;24692;45.642;13.806;2022-10-31T09:47:09;11.23;;;4.97;;
36443;SDS011;24692;45.642;13.806;2022-10-31T09:52:29;11.80;;;4.50;;
36443;SDS011;24692;45.642;13.806;2022-10-31T09:55:03;13.75;;;5.50;;
36443;SDS011;24692;45.642;13.806;2022-10-31T09:57:30;12.82;;;4.97;;
36443;SDS011;24692;45.642;13.806;2022-10-31T09:59:58;17.42;;;5.15;;
36443;SDS011;24692;45.642;13.806;2022-10-31T10:04:58;15.90;;;5.13;;
36443;SDS011;24692;45.642;13.806;2022-10-31T10:07:29;12.63;;;5.13;;
36443;SDS011;24692;45.642;13.806;2022-10-31T10:10:18;15.13;;;5.03;;
36443;SDS011;24692;45.642;13.806;2022-10-31T10:15:50;19.02;;;5.45;;
36443;SDS011;24692;45.642;13.806;2022-10-31T10:19:09;13.80;;;5.15;;
36443;SDS011;24692;45.642;13.806;2022-10-31T10:21:26;9.30;;;5.05;;
36443;SDS011;24692;45.642;13.806;2022-10-31T10:26:37;11.77;;;4.85;;
36443;SDS011;24692;45.642;13.806;2022-10-31T10:31:52;14.60;;;5.10;;
36443;SDS011;24692;45.642;13.806;2022-10-31T10:34:24;13.30;;;5.07;;
36443;SDS011;24692;45.642;13.806;2022-10-31T10:39:51;11.60;;;4.82;;
36443;SDS011;24692;45.642;13.806;2022-10-31T10:42:20;8.95;;;4.68;;
36443;SDS011;24692;45.642;13.806;2022-10-31T10:45:18;12.18;;;4.60;;
36443;SDS011;24692;45.642;13.806;2022-10-31T10:48:09;16.15;;;5.22;;
36443;SDS011;24692;45.642;13.806;2022-10-31T10:50:46;12.52;;;4.88;;
36443;SDS011;24692;45.642;13.806;2022-10-31T10:58:42;12.32;;;4.95;;
36443;SDS011;24692;45.642;13.806;2022-10-31T11:01:10;20.85;;;6.03;;
36443;SDS011;24692;45.642;13.806;2022-10-31T11:03:38;14.05;;;5.22;;
36443;SDS011;24692;45.642;13.806;2022-10-31T11:06:15;19.75;;;6.38;;
36443;SDS011;24692;45.642;13.806;2022-10-31T11:08:42;14.52;;;5.95;;
36443;SDS011;24692;45.642;13.806;2022-10-31T11:11:11;17.83;;;7.00;;
36443;SDS011;24692;45.642;13.806;2022-10-31T11:13:44;12.43;;;6.68;;
36443;SDS011;24692;45.642;13.806;2022-10-31T11:16:13;14.32;;;7.20;;
36443;SDS011;24692;45.642;13.806;2022-10-31T11:18:51;13.68;;;7.60;;
36443;SDS011;24692;45.642;13.806;2022-10-31T11:21:20;19.95;;;7.32;;
36443;SDS011;24692;45.642;13.806;2022-10-31T11:26:34;13.60;;;6.93;;
36443;SDS011;24692;45.642;13.806;2022-10-31T11:29:03;15.68;;;7.07;;
36443;SDS011;24692;45.642;13.806;2022-10-31T11:31:30;17.38;;;6.70;;
36443;SDS011;24692;45.642;13.806;2022-10-31T11:36:27;16.48;;;7.15;;
36443;SDS011;24692;45.642;13.806;2022-10-31T11:38:55;11.32;;;6.25;;
36443;SDS011;24692;45.642;13.806;2022-10-31T11:44:03;13.07;;;6.32;;
36443;SDS011;24692;45.642;13.806;2022-10-31T11:46:39;14.48;;;6.70;;
36443;SDS011;24692;45.642;13.806;2022-10-31T11:51:55;14.02;;;6.68;;
36443;SDS011;24692;45.642;13.806;2022-10-31T11:54:27;14.15;;;6.65;;
36443;SDS011;24692;45.642;13.806;2022-10-31T11:57:25;12.75;;;6.65;;
36443;SDS011;24692;45.642;13.806;2022-10-31T12:00:19;16.48;;;7.18;;
36443;SDS011;24692;45.642;13.806;2022-10-31T12:02:45;13.75;;;6.43;;
36443;SDS011;24692;45.642;13.806;2022-10-31T12:05:17;11.38;;;6.63;;
36443;SDS011;24692;45.642;13.806;2022-10-31T12:07:47;14.68;;;7.20;;
36443;SDS011;24692;45.642;13.806;2022-10-31T12:10:14;11.07;;;6.75;;
36443;SDS011;24692;45.642;13.806;2022-10-31T12:15:33;15.75;;;7.18;;
36443;SDS011;24692;45.642;13.806;2022-10-31T12:20:59;12.05;;;7.47;;
36443;SDS011;24692;45.642;13.806;2022-10-31T12:26:29;13.65;;;7.25;;
36443;SDS011;24692;45.642;13.806;2022-10-31T12:43:28;14.15;;;7.93;;
36443;SDS011;24692;45.642;13.806;2022-10-31T12:46:02;15.52;;;7.70;;
36443;SDS011;24692;45.642;13.806;2022-10-31T12:51:24;13.02;;;7.10;;
36443;SDS011;24692;45.642;13.806;2022-10-31T12:53:59;19.08;;;7.90;;
36443;SDS011;24692;45.642;13.806;2022-10-31T13:05:02;14.88;;;8.23;;
36443;SDS011;24692;45.642;13.806;2022-10-31T13:10:22;16.88;;;7.25;;
36443;SDS011;24692;45.642;13.806;2022-10-31T13:12:51;16.40;;;8.25;;
36443;SDS011;24692;45.642;13.806;2022-10-31T13:15:23;16.15;;;7.70;;
36443;SDS011;24692;45.642;13.806;2022-10-31T13:17:59;15.20;;;8.13;;
36443;SDS011;24692;45.642;13.806;2022-10-31T13:20:33;15.57;;;8.00;;
36443;SDS011;24692;45.642;13.806;2022-10-31T13:25:54;14.98;;;7.70;;
36443;SDS011;24692;45.642;13.806;2022-10-31T13:31:08;17.63;;;8.00;;
36443;SDS011;24692;45.642;13.806;2022-10-31T13:33:35;15.20;;;7.57;;
36443;SDS011;24692;45.642;13.806;2022-10-31T13:38:37;14.38;;;7.68;;
36443;SDS011;24692;45.642;13.806;2022-10-31T13:46:24;14.82;;;8.32;;
36443;SDS011;24692;45.642;13.806;2022-10-31T13:48:50;13.77;;;7.40;;
36443;SDS011;24692;45.642;13.806;2022-10-31T13:51:24;20.85;;;7.85;;
36443;SDS011;24692;45.642;13.806;2022-10-31T13:56:21;15.40;;;8.00;;
36443;SDS011;24692;45.642;13.806;2022-10-31T14:01:23;13.73;;;7.63;;
36443;SDS011;24692;45.642;13.806;2022-10-31T14:10:06;17.00;;;7.28;;
36443;SDS011;24692;45.642;13.806;2022-10-31T14:14:56;20.00;;;8.25;;
36443;SDS011;24692;45.642;13.806;2022-10-31T14:17:28;13.60;;;8.40;;
36443;SDS011;24692;45.642;13.806;2022-10-31T14:19:59;10.90;;;7.75;;
36443;SDS011;24692;45.642;13.806;2022-10-31T14:22:48;15.80;;;8.75;;
36443;SDS011;24692;45.642;13.806;2022-10-31T14:28:01;19.20;;;9.73;;
36443;SDS011;24692;45.642;13.806;2022-10-31T14:30:56;17.77;;;9.93;;
36443;SDS011;24692;45.642;13.806;2022-10-31T14:33:24;17.10;;;9.68;;
36443;SDS011;24692;45.642;13.806;2022-10-31T14:36:09;24.05;;;10.25;;
36443;SDS011;24692;45.642;13.806;2022-10-31T14:39:01;19.35;;;9.73;;
36443;SDS011;24692;45.642;13.806;2022-10-31T14:41:43;17.90;;;10.25;;
36443;SDS011;24692;45.642;13.806;2022-10-31T14:52:25;19.08;;;10.15;;
36443;SDS011;24692;45.642;13.806;2022-10-31T14:54:52;16.67;;;10.60;;
36443;SDS011;24692;45.642;13.806;2022-10-31T14:57:23;19.15;;;9.95;;
36443;SDS011;24692;45.642;13.806;2022-10-31T14:59:58;20.90;;;11.27;;
36443;SDS011;24692;45.642;13.806;2022-10-31T15:05:35;19.17;;;11.30;;
36443;SDS011;24692;45.642;13.806;2022-10-31T15:08:31;26.20;;;11.00;;
36443;SDS011;24692;45.642;13.806;2022-10-31T15:10:57;16.45;;;8.98;;
36443;SDS011;24692;45.642;13.806;2022-10-31T15:13:23;15.70;;;8.80;;
36443;SDS011;24692;45.642;13.806;2022-10-31T15:15:52;20.63;;;10.82;;
36443;SDS011;24692;45.642;13.806;2022-10-31T15:18:29;16.42;;;8.38;;
36443;SDS011;24692;45.642;13.806;2022-10-31T15:20:55;16.25;;;8.30;;
36443;SDS011;24692;45.642;13.806;2022-10-31T15:23:23;19.50;;;8.52;;
36443;SDS011;24692;45.642;13.806;2022-10-31T15:26:00;16.08;;;7.78;;
36443;SDS011;24692;45.642;13.806;2022-10-31T15:28:28;20.05;;;8.05;;
36443;SDS011;24692;45.642;13.806;2022-10-31T15:30:54;20.10;;;8.00;;
36443;SDS011;24692;45.642;13.806;2022-10-31T15:33:29;20.75;;;8.10;;
36443;SDS011;24692;45.642;13.806;2022-10-31T15:36:05;20.27;;;7.67;;
36443;SDS011;24692;45.642;13.806;2022-10-31T15:38:31;21.02;;;7.88;;
36443;SDS011;24692;45.642;13.806;2022-10-31T15:41:02;28.63;;;8.30;;
36443;SDS011;24692;45.642;13.806;2022-10-31T15:43:36;26.88;;;8.40;;
36443;SDS011;24692;45.642;13.806;2022-10-31T15:46:06;27.75;;;7.85;;
36443;SDS011;24692;45.642;13.806;2022-10-31T15:48:33;21.50;;;9.02;;
36443;SDS011;24692;45.642;13.806;2022-10-31T15:51:00;22.60;;;8.88;;
36443;SDS011;24692;45.642;13.806;2022-10-31T15:56:25;20.10;;;8.55;;
36443;SDS011;24692;45.642;13.806;2022-10-31T15:58:57;23.55;;;8.57;;
36443;SDS011;24692;45.642;13.806;2022-10-31T16:01:26;19.55;;;7.68;;
36443;SDS011;24692;45.642;13.806;2022-10-31T16:06:37;30.50;;;9.17;;
36443;SDS011;24692;45.642;13.806;2022-10-31T16:09:03;23.27;;;8.93;;
36443;SDS011;24692;45.642;13.806;2022-10-31T16:11:43;23.87;;;9.30;;
36443;SDS011;24692;45.642;13.806;2022-10-31T16:16:40;28.77;;;8.83;;
36443;SDS011;24692;45.642;13.806;2022-10-31T16:19:14;24.17;;;8.50;;
36443;SDS011;24692;45.642;13.806;2022-10-31T16:21:49;24.33;;;9.27;;
36443;SDS011;24692;45.642;13.806;2022-10-31T16:26:52;19.52;;;8.85;;
36443;SDS011;24692;45.642;13.806;2022-10-31T16:29:44;19.53;;;9.33;;
36443;SDS011;24692;45.642;13.806;2022-10-31T16:35:26;17.73;;;8.67;;
36443;SDS011;24692;45.642;13.806;2022-10-31T16:37:52;21.63;;;8.93;;
36443;SDS011;24692;45.642;13.806;2022-10-31T16:40:18;15.03;;;8.33;;
36443;SDS011;24692;45.642;13.806;2022-10-31T16:42:45;15.87;;;8.93;;
36443;SDS011;24692;45.642;13.806;2022-10-31T16:45:18;20.23;;;9.00;;
36443;SDS011;24692;45.642;13.806;2022-10-31T16:47:48;17.83;;;8.27;;
36443;SDS011;24692;45.642;13.806;2022-10-31T16:50:19;20.73;;;8.53;;
36443;SDS011;24692;45.642;13.806;2022-10-31T16:52:49;15.20;;;8.57;;
36443;SDS011;24692;45.642;13.806;2022-10-31T16:55:16;20.57;;;8.73;;
36443;SDS011;24692;45.642;13.806;2022-10-31T16:57:44;16.33;;;8.47;;
36443;SDS011;24692;45.642;13.806;2022-10-31T17:00:24;15.70;;;8.07;;
36443;SDS011;24692;45.642;13.806;2022-10-31T17:02:52;16.23;;;8.70;;
36443;SDS011;24692;45.642;13.806;2022-10-31T17:05:20;15.13;;;8.10;;
36443;SDS011;24692;45.642;13.806;2022-10-31T17:07:46;12.05;;;7.78;;
36443;SDS011;24692;45.642;13.806;2022-10-31T17:10:13;16.67;;;8.20;;
36443;SDS011;24692;45.642;13.806;2022-10-31T17:12:40;12.68;;;7.65;;
36443;SDS011;24692;45.642;13.806;2022-10-31T17:15:31;13.70;;;6.70;;
36443;SDS011;24692;45.642;13.806;2022-10-31T17:17:59;14.17;;;7.57;;
36443;SDS011;24692;45.642;13.806;2022-10-31T17:20:26;13.70;;;7.40;;
36443;SDS011;24692;45.642;13.806;2022-10-31T17:22:54;14.33;;;7.17;;